createdAt,value
2022-11-20T00:02:12.190Z,9.85
2022-11-20T00:04:40.610Z,8.90
2022-11-20T00:07:08.846Z,9.57
2022-11-20T00:09:38.337Z,16.60
2022-11-20T00:12:07.172Z,18.30
2022-11-20T00:14:35.399Z,12.48
2022-11-20T00:17:03.431Z,9.48
2022-11-20T00:19:31.604Z,9.90
2022-11-20T00:21:59.779Z,7.85
2022-11-20T00:24:27.925Z,16.88
2022-11-20T00:26:57.463Z,10.98
2022-11-20T00:29:25.649Z,15.70
2022-11-20T00:31:53.859Z,20.00
2022-11-20T00:34:22.043Z,7.85
2022-11-20T00:36:50.159Z,10.50
2022-11-20T00:39:18.588Z,7.00
2022-11-20T00:41:46.922Z,9.13
2022-11-20T00:44:16.401Z,9.75
2022-11-20T00:46:44.657Z,13.73
2022-11-20T00:49:15.084Z,12.23
2022-11-20T00:51:43.307Z,8.77
2022-11-20T00:54:11.383Z,5.80
2022-11-20T00:56:39.771Z,12.35
2022-11-20T00:59:09.249Z,9.50
2022-11-20T01:01:39.943Z,10.30
2022-11-20T01:04:08.124Z,13.80
2022-11-20T01:06:38.047Z,16.27
2022-11-20T01:09:08.399Z,9.10
2022-11-20T01:11:38.905Z,7.75
2022-11-20T01:14:09.022Z,11.88
2022-11-20T01:16:40.903Z,12.45
2022-11-20T01:19:17.367Z,16.77
2022-11-20T01:21:48.228Z,9.70
2022-11-20T01:24:18.702Z,21.77
2022-11-20T01:26:49.592Z,9.40
2022-11-20T01:29:24.302Z,17.70
2022-11-20T01:31:54.507Z,18.23
2022-11-20T01:34:24.474Z,21.27
2022-11-20T01:36:54.431Z,17.83
2022-11-20T01:39:25.105Z,11.48
2022-11-20T01:42:11.977Z,20.52
2022-11-20T01:44:52.241Z,20.17
2022-11-20T01:49:57.342Z,13.52
2022-11-20T01:52:28.430Z,19.90
2022-11-20T01:55:02.713Z,10.20
2022-11-20T01:57:33.851Z,16.92
2022-11-20T02:00:05.661Z,13.40
2022-11-20T02:02:35.723Z,13.77
2022-11-20T02:05:14.305Z,16.42
2022-11-20T02:07:43.397Z,17.55
2022-11-20T02:10:11.617Z,10.52
2022-11-20T02:12:57.367Z,19.77
2022-11-20T02:15:30.100Z,21.48
2022-11-20T02:18:00.463Z,26.10
2022-11-20T02:20:28.908Z,17.20
2022-11-20T02:23:02.854Z,21.23
2022-11-20T02:25:34.577Z,11.52
2022-11-20T02:28:02.798Z,18.35
2022-11-20T02:30:31.021Z,17.33
2022-11-20T02:33:00.606Z,19.48
2022-11-20T02:35:47.229Z,19.08
2022-11-20T02:38:16.763Z,22.23
2022-11-20T02:40:47.736Z,28.20
2022-11-20T02:43:18.868Z,19.42
2022-11-20T02:45:47.089Z,13.90
2022-11-20T02:48:15.470Z,14.48
2022-11-20T02:50:43.907Z,20.05
2022-11-20T02:53:12.094Z,14.20
2022-11-20T02:55:40.224Z,18.60
2022-11-20T02:58:09.620Z,22.45
2022-11-20T03:00:37.706Z,16.77
2022-11-20T03:03:05.969Z,16.70
2022-11-20T03:05:34.244Z,19.75
2022-11-20T03:08:02.367Z,33.22
2022-11-20T03:10:30.808Z,24.65
2022-11-20T03:12:59.115Z,20.23
2022-11-20T03:15:28.637Z,13.38
2022-11-20T03:17:57.450Z,21.88
2022-11-20T03:20:26.301Z,18.20
2022-11-20T03:22:56.529Z,19.45
2022-11-20T03:27:53.791Z,19.23
2022-11-20T03:30:25.021Z,10.88
2022-11-20T03:32:57.290Z,19.52
2022-11-20T03:35:25.751Z,18.02
2022-11-20T03:37:54.065Z,20.52
2022-11-20T03:40:22.425Z,27.23
2022-11-20T03:42:50.689Z,21.77
2022-11-20T03:45:20.645Z,13.93
2022-11-20T03:47:48.838Z,20.77
2022-11-20T03:50:18.652Z,17.05
2022-11-20T03:52:49.670Z,13.07
2022-11-20T03:55:18.115Z,14.82
2022-11-20T03:57:46.451Z,10.85
2022-11-20T04:00:17.188Z,19.00
2022-11-20T04:02:45.697Z,15.15
2022-11-20T04:05:15.277Z,6.68
2022-11-20T04:07:45.074Z,8.93
2022-11-20T04:10:13.467Z,10.82
2022-11-20T04:12:41.733Z,13.40
2022-11-20T04:15:10.845Z,9.20
2022-11-20T04:17:39.269Z,7.32
2022-11-20T04:20:08.833Z,11.38
2022-11-20T04:22:37.116Z,12.70
2022-11-20T04:25:07.585Z,13.02
2022-11-20T04:27:35.762Z,10.15
2022-11-20T04:30:03.991Z,10.57
2022-11-20T04:32:32.171Z,13.60
2022-11-20T04:35:00.281Z,17.17
2022-11-20T04:37:28.510Z,10.63
2022-11-20T04:39:56.687Z,9.55
2022-11-20T04:42:31.983Z,20.33
2022-11-20T04:45:00.135Z,7.93
2022-11-20T04:47:28.422Z,9.43
2022-11-20T04:49:56.555Z,16.63
2022-11-20T04:52:24.734Z,6.03
2022-11-20T04:54:54.506Z,16.45
2022-11-20T04:57:22.603Z,11.45
2022-11-20T04:59:52.215Z,13.00
2022-11-20T05:02:20.655Z,11.73
2022-11-20T05:04:49.075Z,11.32
2022-11-20T05:07:17.727Z,19.35
2022-11-20T05:09:45.899Z,18.92
2022-11-20T05:12:14.384Z,20.83
2022-11-20T05:14:42.495Z,12.93
2022-11-20T05:17:14.513Z,18.65
2022-11-20T05:19:42.645Z,17.58
2022-11-20T05:22:10.767Z,21.73
2022-11-20T05:24:39.392Z,9.65
2022-11-20T05:27:07.526Z,25.63
2022-11-20T05:29:35.697Z,15.82
2022-11-20T05:32:03.814Z,11.77
2022-11-20T05:34:33.470Z,11.60
2022-11-20T05:37:01.655Z,15.00
2022-11-20T05:39:30.081Z,21.48
2022-11-20T05:42:12.072Z,18.27
2022-11-20T05:44:40.231Z,17.55
2022-11-20T05:47:08.750Z,16.17
2022-11-20T05:49:38.376Z,11.18
2022-11-20T05:52:06.554Z,16.27
2022-11-20T05:54:34.978Z,24.15
2022-11-20T05:57:03.640Z,16.92
2022-11-20T05:59:31.843Z,23.55
2022-11-20T06:01:59.948Z,10.88
2022-11-20T06:04:28.307Z,16.58
2022-11-20T06:06:57.963Z,10.85
2022-11-20T06:09:26.271Z,14.52
2022-11-20T06:11:54.491Z,11.65
2022-11-20T06:14:22.757Z,5.25
2022-11-20T06:16:51.029Z,14.10
2022-11-20T06:19:19.479Z,7.15
2022-11-20T06:21:49.713Z,13.93
2022-11-20T06:24:20.019Z,12.20
2022-11-20T06:26:48.118Z,8.15
2022-11-20T06:29:16.427Z,13.70
2022-11-20T06:31:44.898Z,7.72
2022-11-20T06:34:13.029Z,12.15
2022-11-20T06:36:41.142Z,9.77
2022-11-20T06:39:09.522Z,15.73
2022-11-20T06:41:39.141Z,12.38
2022-11-20T06:44:07.507Z,14.98
2022-11-20T06:46:35.692Z,5.78
2022-11-20T06:49:05.040Z,9.88
2022-11-20T06:51:33.149Z,12.38
2022-11-20T06:54:02.060Z,11.23
2022-11-20T06:56:30.326Z,8.90
2022-11-20T06:59:00.099Z,11.60
2022-11-20T07:01:28.411Z,10.38
2022-11-20T07:03:56.825Z,11.15
2022-11-20T07:06:24.921Z,10.20
2022-11-20T07:08:53.530Z,11.82
2022-11-20T07:11:21.684Z,16.75
2022-11-20T07:13:49.864Z,13.73
2022-11-20T07:16:20.302Z,17.30
2022-11-20T07:18:50.728Z,8.18
2022-11-20T07:21:19.594Z,12.52
2022-11-20T07:23:47.928Z,11.98
2022-11-20T07:26:16.232Z,15.45
2022-11-20T07:28:48.386Z,8.57
2022-11-20T07:31:19.621Z,12.80
2022-11-20T07:33:49.497Z,18.05
2022-11-20T07:36:18.326Z,11.43
2022-11-20T07:38:46.621Z,15.57
2022-11-20T07:41:14.741Z,9.65
2022-11-20T07:43:42.821Z,8.27
2022-11-20T07:46:11.101Z,7.63
2022-11-20T07:48:39.372Z,13.90
2022-11-20T07:51:09.128Z,19.40
2022-11-20T07:53:37.300Z,6.90
2022-11-20T07:56:05.822Z,6.22
2022-11-20T07:58:35.572Z,12.95
2022-11-20T08:01:08.484Z,7.22
2022-11-20T08:03:38.837Z,8.20
2022-11-20T08:06:09.871Z,15.88
2022-11-20T08:08:42.421Z,25.73
2022-11-20T08:11:28.388Z,10.50
2022-11-20T08:14:14.547Z,8.18
2022-11-20T08:16:43.328Z,13.52
2022-11-20T08:19:11.747Z,19.05
2022-11-20T08:21:41.865Z,13.90
2022-11-20T08:24:10.656Z,15.38
2022-11-20T08:26:40.274Z,13.55
2022-11-20T08:29:08.791Z,7.80
2022-11-20T08:31:37.477Z,9.02
2022-11-20T08:34:09.220Z,12.20
2022-11-20T08:36:37.979Z,10.32
2022-11-20T08:39:07.492Z,15.10
2022-11-20T08:41:36.067Z,11.68
2022-11-20T08:44:06.142Z,16.38
2022-11-20T08:46:37.352Z,17.10
2022-11-20T08:49:05.772Z,18.50
2022-11-20T08:51:34.565Z,13.07
2022-11-20T08:54:02.934Z,12.30
2022-11-20T08:56:33.049Z,19.83
2022-11-20T08:59:22.921Z,18.75
2022-11-20T09:01:49.879Z,8.93
2022-11-20T09:04:18.262Z,10.00
2022-11-20T09:06:46.540Z,11.35
2022-11-20T09:09:14.670Z,10.60
2022-11-20T09:11:44.609Z,8.52
2022-11-20T09:14:12.865Z,9.48
2022-11-20T09:16:41.171Z,13.60
2022-11-20T09:19:34.520Z,17.55
2022-11-20T09:24:47.663Z,8.00
2022-11-20T09:27:17.205Z,15.07
2022-11-20T09:29:45.224Z,3.92
2022-11-20T09:32:13.332Z,8.57
2022-11-20T09:34:41.358Z,3.20
2022-11-20T09:37:09.469Z,11.27
2022-11-20T09:39:40.065Z,6.15
2022-11-20T09:42:34.876Z,7.93
2022-11-20T09:45:15.235Z,6.53
2022-11-20T09:48:06.595Z,10.68
2022-11-20T09:50:39.321Z,7.72
2022-11-20T09:53:15.791Z,4.93
2022-11-20T09:55:45.154Z,9.27
2022-11-20T09:58:25.212Z,7.97
2022-11-20T10:00:57.451Z,6.25
2022-11-20T10:03:38.967Z,4.72
2022-11-20T10:06:11.071Z,5.43
2022-11-20T10:08:44.469Z,10.40
2022-11-20T10:11:19.709Z,5.25
2022-11-20T10:13:58.747Z,4.32
2022-11-20T10:16:41.129Z,5.53
2022-11-20T10:19:24.727Z,9.43
2022-11-20T10:22:05.979Z,8.05
2022-11-20T10:24:57.138Z,2.08
2022-11-20T10:27:42.615Z,3.20
2022-11-20T10:30:14.465Z,2.63
2022-11-20T10:32:45.199Z,8.27
2022-11-20T10:35:23.735Z,5.60
2022-11-20T10:37:55.501Z,12.32
2022-11-20T10:40:31.125Z,7.13
2022-11-20T10:43:04.079Z,10.30
2022-11-20T10:45:46.679Z,3.45
2022-11-20T10:48:19.054Z,2.92
2022-11-20T10:50:57.619Z,9.48
2022-11-20T10:53:47.849Z,3.28
2022-11-20T10:56:24.027Z,1.83
2022-11-20T10:59:10.907Z,4.38
2022-11-20T11:01:44.502Z,3.47
2022-11-20T11:04:31.326Z,6.88
2022-11-20T11:07:08.408Z,4.65
2022-11-20T11:09:41.310Z,2.75
2022-11-20T11:12:11.095Z,5.10
2022-11-20T11:14:50.423Z,4.53
2022-11-20T11:17:31.416Z,2.05
2022-11-20T11:20:05.850Z,2.75
2022-11-20T11:22:35.527Z,1.75
2022-11-20T11:25:04.178Z,7.43
2022-11-20T11:27:32.449Z,1.15
2022-11-20T11:30:16.333Z,2.00
2022-11-20T11:32:46.209Z,4.38
2022-11-20T11:35:24.424Z,1.10
2022-11-20T11:37:55.168Z,2.58
2022-11-20T11:40:28.126Z,3.58
2022-11-20T11:42:59.830Z,3.90
2022-11-20T11:45:27.479Z,3.92
2022-11-20T11:47:59.694Z,1.92
2022-11-20T11:50:29.037Z,0.40
2022-11-20T11:53:06.302Z,1.65
2022-11-20T11:55:39.046Z,0.52
2022-11-20T11:58:22.535Z,0.45
2022-11-20T12:00:58.595Z,2.58
2022-11-20T12:03:36.751Z,0.73
2022-11-20T12:06:11.273Z,0.40
2022-11-20T12:08:47.355Z,4.20
2022-11-20T12:11:22.234Z,0.43
2022-11-20T12:13:56.422Z,3.47
2022-11-20T12:16:25.178Z,1.75
2022-11-20T12:18:56.175Z,1.67
2022-11-20T12:21:33.664Z,0.45
2022-11-20T12:24:34.453Z,1.60
2022-11-20T12:27:30.295Z,3.88
2022-11-20T12:30:03.994Z,2.65
2022-11-20T12:33:06.976Z,0.85
2022-11-20T12:35:50.094Z,3.38
2022-11-20T12:38:42.381Z,0.47
2022-11-20T12:41:39.846Z,2.63
2022-11-20T12:44:36.231Z,0.98
2022-11-20T12:47:15.984Z,2.20
2022-11-20T12:49:50.815Z,4.72
2022-11-20T12:52:39.569Z,1.08
2022-11-20T12:55:28.246Z,2.10
2022-11-20T12:58:00.415Z,2.28
2022-11-20T13:00:28.899Z,5.70
2022-11-20T13:03:12.933Z,3.22
2022-11-20T13:05:51.738Z,2.95
2022-11-20T13:08:26.658Z,1.77
2022-11-20T13:11:02.308Z,0.90
2022-11-20T13:13:39.335Z,1.83
2022-11-20T13:16:14.621Z,2.67
2022-11-20T13:18:46.417Z,1.27
2022-11-20T13:21:20.027Z,1.73
2022-11-20T13:23:51.832Z,3.35
2022-11-20T13:26:22.947Z,3.05
2022-11-20T13:29:05.235Z,0.77
2022-11-20T13:31:36.101Z,1.48
2022-11-20T13:34:07.369Z,1.38
2022-11-20T13:36:51.953Z,4.97
2022-11-20T13:39:28.691Z,2.55
2022-11-20T13:41:59.015Z,3.13
2022-11-20T13:44:31.697Z,2.95
2022-11-20T13:46:59.948Z,2.65
2022-11-20T13:49:32.032Z,4.13
2022-11-20T13:52:11.194Z,3.22
2022-11-20T13:55:14.697Z,4.13
2022-11-20T13:57:57.740Z,5.93
2022-11-20T14:00:39.120Z,5.95
2022-11-20T14:03:15.880Z,2.00
2022-11-20T14:05:53.938Z,6.28
2022-11-20T14:08:34.900Z,5.63
2022-11-20T14:11:17.637Z,1.85
2022-11-20T14:14:00.294Z,1.60
2022-11-20T14:16:30.050Z,4.63
2022-11-20T14:19:00.083Z,0.95
2022-11-20T14:21:37.813Z,0.95
2022-11-20T14:24:06.877Z,3.50
2022-11-20T14:26:36.417Z,4.53
2022-11-20T14:29:04.571Z,2.42
2022-11-20T14:31:33.219Z,2.00
2022-11-20T14:34:01.426Z,1.90
2022-11-20T14:36:30.114Z,5.78
2022-11-20T14:39:02.858Z,4.13
2022-11-20T14:41:33.283Z,1.90
2022-11-20T14:44:03.796Z,4.43
2022-11-20T14:46:33.624Z,3.08
2022-11-20T14:49:05.275Z,6.55
2022-11-20T14:51:35.886Z,5.07
2022-11-20T14:54:15.742Z,9.70
2022-11-20T14:56:43.967Z,7.00
2022-11-20T14:59:13.558Z,5.55
2022-11-20T15:01:41.677Z,5.97
2022-11-20T15:04:13.319Z,5.20
2022-11-20T15:06:52.566Z,3.58
2022-11-20T15:09:20.638Z,6.30
2022-11-20T15:11:57.460Z,3.45
2022-11-20T15:14:28.418Z,6.82
2022-11-20T15:16:57.202Z,5.28
2022-11-20T15:19:27.233Z,4.47
2022-11-20T15:21:55.642Z,2.63
2022-11-20T15:24:23.819Z,7.60
2022-11-20T15:26:52.100Z,4.45
2022-11-20T15:29:22.019Z,5.15
2022-11-20T15:31:52.060Z,6.60
2022-11-20T15:34:20.690Z,5.80
2022-11-20T15:36:48.807Z,4.20
2022-11-20T15:39:16.883Z,6.18
2022-11-20T15:41:44.955Z,3.38
2022-11-20T15:44:13.217Z,5.22
2022-11-20T15:46:45.556Z,6.55
2022-11-20T15:49:16.747Z,7.80
2022-11-20T15:51:47.418Z,3.53
2022-11-20T15:54:18.580Z,11.40
2022-11-20T15:56:46.622Z,6.03
2022-11-20T15:59:15.919Z,13.00
2022-11-20T16:01:44.402Z,9.60
2022-11-20T16:04:15.984Z,9.80
2022-11-20T16:06:44.084Z,8.32
2022-11-20T16:09:12.226Z,8.00
2022-11-20T16:11:40.815Z,4.63
2022-11-20T16:14:26.453Z,4.53
2022-11-20T16:16:54.660Z,4.63
2022-11-20T16:19:24.180Z,9.05
2022-11-20T16:21:52.459Z,7.05
2022-11-20T16:24:20.987Z,6.47
2022-11-20T16:26:49.778Z,3.70
2022-11-20T16:29:17.854Z,4.00
2022-11-20T16:31:45.965Z,3.40
2022-11-20T16:34:14.051Z,6.97
2022-11-20T16:36:45.997Z,4.47
2022-11-20T16:39:17.780Z,3.17
2022-11-20T16:42:53.788Z,5.05
2022-11-20T16:45:33.940Z,8.43
2022-11-20T16:48:02.379Z,9.82
2022-11-20T16:50:30.640Z,4.40
2022-11-20T16:53:02.863Z,4.45
2022-11-20T16:55:30.926Z,11.63
2022-11-20T16:57:59.100Z,5.70
2022-11-20T17:00:27.173Z,7.28
2022-11-20T17:02:55.876Z,6.53
2022-11-20T17:05:23.960Z,3.78
2022-11-20T17:07:52.143Z,6.30
2022-11-20T17:10:22.245Z,9.50
2022-11-20T17:12:50.382Z,7.88
2022-11-20T17:15:18.493Z,11.15
2022-11-20T17:17:50.049Z,16.83
2022-11-20T17:20:18.258Z,8.30
2022-11-20T17:22:46.405Z,10.35
2022-11-20T17:25:14.396Z,15.48
2022-11-20T17:27:43.789Z,13.65
2022-11-20T17:30:12.180Z,14.68
2022-11-20T17:32:45.966Z,8.68
2022-11-20T17:35:38.142Z,11.25
2022-11-20T17:38:07.290Z,9.63
2022-11-20T17:40:35.480Z,11.85
2022-11-20T17:43:04.979Z,12.65
2022-11-20T17:45:33.166Z,17.77
2022-11-20T17:48:01.299Z,14.98
2022-11-20T17:50:29.614Z,10.82
2022-11-20T17:52:57.629Z,13.32
2022-11-20T17:55:25.616Z,13.40
2022-11-20T17:58:02.848Z,8.40
2022-11-20T18:00:32.373Z,11.73
2022-11-20T18:03:00.968Z,7.93
2022-11-20T18:05:28.951Z,9.88
2022-11-20T18:07:57.088Z,8.20
2022-11-20T18:10:25.118Z,6.03
2022-11-20T18:12:53.933Z,7.57
2022-11-20T18:15:21.957Z,8.63
2022-11-20T18:17:51.416Z,5.75
2022-11-20T18:20:39.613Z,9.20
2022-11-20T18:23:08.186Z,7.85
2022-11-20T18:25:36.243Z,9.32
2022-11-20T18:28:04.375Z,6.97
2022-11-20T18:30:32.452Z,10.13
2022-11-20T18:33:06.118Z,11.02
2022-11-20T18:35:34.362Z,8.05
2022-11-20T18:38:02.572Z,10.48
2022-11-20T18:40:31.142Z,12.13
2022-11-20T18:43:16.333Z,18.70
2022-11-20T18:45:44.623Z,13.80
2022-11-20T18:48:14.028Z,13.75
2022-11-20T18:50:42.049Z,12.18
2022-11-20T18:53:10.095Z,15.52
2022-11-20T18:55:38.104Z,10.85
2022-11-20T18:58:09.500Z,14.13
2022-11-20T19:00:40.469Z,15.02
2022-11-20T19:03:08.478Z,13.15
2022-11-20T19:05:38.934Z,9.18
2022-11-20T19:08:07.137Z,12.38
2022-11-20T19:10:35.270Z,11.75
2022-11-20T19:13:03.299Z,15.95
2022-11-20T19:15:31.358Z,9.52
2022-11-20T19:18:01.330Z,17.10
2022-11-20T19:20:29.383Z,14.82
2022-11-20T19:22:58.819Z,14.73
2022-11-20T19:25:28.012Z,22.80
2022-11-20T19:27:56.024Z,36.37
2022-11-20T19:30:24.112Z,28.33
2022-11-20T19:32:52.074Z,20.33
2022-11-20T19:35:20.087Z,19.48
2022-11-20T19:37:48.101Z,16.35
2022-11-20T19:40:26.360Z,13.00
2022-11-20T19:42:54.744Z,15.23
2022-11-20T19:45:22.829Z,11.15
2022-11-20T19:48:07.946Z,12.05
2022-11-20T19:50:36.442Z,10.27
2022-11-20T19:53:04.410Z,22.83
2022-11-20T19:55:34.215Z,14.02
2022-11-20T19:58:03.310Z,16.08
2022-11-20T20:00:32.997Z,21.10
2022-11-20T20:03:01.404Z,19.08
2022-11-20T20:05:30.316Z,12.80
2022-11-20T20:07:58.460Z,22.08
2022-11-20T20:10:26.472Z,14.23
2022-11-20T20:12:56.088Z,16.63
2022-11-20T20:15:24.279Z,16.75
2022-11-20T20:17:53.148Z,29.35
2022-11-20T20:20:24.981Z,45.25
2022-11-20T20:22:53.458Z,34.97
2022-11-20T20:25:21.476Z,19.90
2022-11-20T20:27:49.442Z,19.67
2022-11-20T20:30:19.359Z,15.23
2022-11-20T20:32:50.754Z,22.65
2022-11-20T20:35:21.490Z,18.08
2022-11-20T20:37:49.514Z,28.42
2022-11-20T20:40:19.008Z,23.23
2022-11-20T20:42:47.051Z,37.15
2022-11-20T20:45:15.173Z,37.42
2022-11-20T20:47:44.630Z,21.80
2022-11-20T20:50:13.767Z,18.80
2022-11-20T20:52:46.399Z,12.47
2022-11-20T20:55:14.479Z,15.48
2022-11-20T20:57:42.680Z,19.63
2022-11-20T21:00:11.526Z,20.65
2022-11-20T21:06:33.966Z,19.77
2022-11-20T21:09:01.944Z,17.95
2022-11-20T21:11:30.004Z,17.30
2022-11-20T21:13:58.032Z,12.73
2022-11-20T21:16:26.575Z,18.05
2022-11-20T21:18:54.695Z,16.63
2022-11-20T21:21:40.397Z,11.68
2022-11-20T21:24:10.401Z,20.88
2022-11-20T21:26:38.450Z,13.73
2022-11-20T21:29:06.406Z,11.50
2022-11-20T21:31:34.463Z,16.80
2022-11-20T21:34:02.551Z,11.98
2022-11-20T21:36:32.137Z,14.18
2022-11-20T21:39:00.554Z,15.50
2022-11-20T21:41:31.517Z,18.17
2022-11-20T21:46:48.882Z,18.17
2022-11-20T21:49:18.312Z,13.20
2022-11-20T21:51:46.354Z,16.95
2022-11-20T21:54:14.426Z,17.33
2022-11-20T21:56:43.745Z,15.50
2022-11-20T21:59:14.016Z,14.55
2022-11-20T22:01:42.276Z,16.40
2022-11-20T22:04:15.025Z,16.02
2022-11-20T22:06:43.017Z,22.20
2022-11-20T22:09:11.891Z,20.17
2022-11-20T22:11:39.891Z,14.52
2022-11-20T22:14:23.489Z,21.30
2022-11-20T22:16:53.485Z,15.63
2022-11-20T22:19:22.780Z,6.25
2022-11-20T22:21:51.773Z,15.40
2022-11-20T22:24:21.591Z,16.88
2022-11-20T22:26:50.173Z,13.68
2022-11-20T22:29:21.963Z,9.27
2022-11-20T22:31:52.420Z,12.82
2022-11-20T22:34:20.858Z,6.70
2022-11-20T22:36:49.079Z,10.73
2022-11-20T22:39:17.673Z,7.60
2022-11-20T22:41:45.735Z,9.57
2022-11-20T22:44:17.181Z,15.50
2022-11-20T22:46:46.577Z,13.15
2022-11-20T22:49:14.893Z,15.02
2022-11-20T22:51:43.468Z,13.65
2022-11-20T22:54:12.865Z,7.47
2022-11-20T22:56:40.945Z,12.73
2022-11-20T22:59:09.069Z,13.95
2022-11-20T23:01:38.109Z,8.90
2022-11-20T23:04:11.108Z,12.73
2022-11-20T23:06:39.597Z,17.35
2022-11-20T23:09:08.959Z,7.47
2022-11-20T23:11:37.295Z,14.02
2022-11-20T23:14:07.275Z,5.88
2022-11-20T23:16:35.891Z,7.97
2022-11-20T23:19:05.789Z,11.52
2022-11-20T23:21:35.746Z,5.15
2022-11-20T23:24:03.992Z,8.70
2022-11-20T23:26:36.485Z,4.43
2022-11-20T23:29:06.466Z,13.02
2022-11-20T23:31:35.814Z,13.77
2022-11-20T23:34:04.426Z,13.00
2022-11-20T23:36:34.136Z,8.73
2022-11-20T23:39:02.086Z,8.93
2022-11-20T23:41:30.072Z,11.02
2022-11-20T23:43:58.037Z,8.25
2022-11-20T23:46:26.028Z,11.25
2022-11-20T23:48:54.006Z,13.00
2022-11-20T23:51:22.062Z,7.40
2022-11-20T23:53:51.435Z,8.18
2022-11-20T23:56:19.394Z,18.85
2022-11-20T23:58:47.592Z,11.52
